Time;durP1;ratioP1;P1;durP2;ratioP2;P2;SDS_P1;SDS_P2;PMS_P1;PMS_P2;Temp;Humidity;BMP_temperature;BMP_pressure;BME280_temperature;BME280_humidity;BME280_pressure;Samples;Min_cycle;Max_cycle;Signal;HPM_P1;HPM_P2
2023/03/22 00:01:15;;;;;;;21.73;4.13;;;;;;;8.88;100.00;100761.03;5022621;28;20049;-83
2023/03/22 00:03:41;;;;;;;14.00;3.03;;;;;;;8.89;100.00;100746.81;5022812;28;20072;-83
2023/03/22 00:06:08;;;;;;;17.98;3.15;;;;;;;8.94;100.00;100746.56;5025441;28;20120;-84
2023/03/22 00:08:35;;;;;;;17.23;4.05;;;;;;;8.97;100.00;100746.41;5033305;28;20091;-83
2023/03/22 00:11:02;;;;;;;17.23;3.30;;;;;;;8.96;100.00;100741.16;5023230;28;20116;-82
2023/03/22 00:13:29;;;;;;;21.15;4.05;;;;;;;8.98;100.00;100733.97;5022495;28;20084;-82
2023/03/22 00:15:56;;;;;;;14.20;2.88;;;;;;;8.99;100.00;100728.56;5024382;28;20030;-82
2023/03/22 00:18:23;;;;;;;14.48;3.13;;;;;;;9.05;100.00;100732.72;5011594;28;20033;-83
2023/03/22 00:20:51;;;;;;;14.75;4.15;;;;;;;9.13;100.00;100725.19;5024322;28;20605;-84
2023/03/22 00:23:18;;;;;;;14.18;3.40;;;;;;;9.14;100.00;100731.41;5019751;28;20089;-81
2023/03/22 00:25:44;;;;;;;16.80;3.53;;;;;;;9.15;100.00;100726.00;5018897;28;20141;-83
2023/03/22 00:28:11;;;;;;;26.40;3.10;;;;;;;9.09;100.00;100731.63;5019868;28;20136;-82
2023/03/22 00:30:38;;;;;;;16.15;3.20;;;;;;;9.07;100.00;100730.84;5000352;28;20034;-86
2023/03/22 00:33:05;;;;;;;22.05;3.63;;;;;;;8.99;100.00;100733.88;5020343;28;20029;-88
2023/03/22 00:35:31;;;;;;;17.52;3.65;;;;;;;8.92;100.00;100720.00;5027115;28;20128;-84
2023/03/22 00:38:12;;;;;;;15.77;3.78;;;;;;;8.86;100.00;100717.66;5022312;28;20119;-84
2023/03/22 00:40:40;;;;;;;18.55;5.00;;;;;;;8.83;100.00;100723.13;5012952;28;20495;-85
2023/03/22 00:43:06;;;;;;;16.23;4.45;;;;;;;8.80;100.00;100712.66;5016310;28;20038;-82
2023/03/22 00:45:36;;;;;;;14.80;3.63;;;;;;;8.82;100.00;100718.75;5021745;28;20057;-81
2023/03/22 00:48:03;;;;;;;23.15;3.75;;;;;;;8.87;100.00;100697.22;5018751;28;20045;-83
2023/03/22 00:50:29;;;;;;;17.25;4.10;;;;;;;8.90;100.00;100692.59;5018963;28;20041;-84
2023/03/22 00:52:56;;;;;;;19.73;5.47;;;;;;;8.95;100.00;100696.88;5023077;28;20375;-84
2023/03/22 00:55:22;;;;;;;15.25;4.13;;;;;;;9.01;100.00;100694.72;5038280;28;20045;-82
2023/03/22 00:57:49;;;;;;;16.83;4.57;;;;;;;9.05;100.00;100687.44;4999589;28;20450;-83
2023/03/22 01:00:15;;;;;;;13.98;3.70;;;;;;;9.13;100.00;100687.91;5006376;28;20104;-83
2023/03/22 01:02:44;;;;;;;21.83;4.05;;;;;;;9.21;100.00;100685.72;5007878;28;20121;-84
2023/03/22 01:05:16;;;;;;;23.45;4.53;;;;;;;9.25;100.00;100681.09;5021845;28;20120;-86
2023/03/22 01:07:43;;;;;;;15.63;3.70;;;;;;;9.26;100.00;100667.69;5005855;28;20076;-85
2023/03/22 01:10:11;;;;;;;12.70;3.30;;;;;;;9.28;100.00;100654.28;5011701;28;20025;-86
2023/03/22 01:12:38;;;;;;;20.13;3.28;;;;;;;9.28;100.00;100657.81;5020691;28;20398;-83
2023/03/22 01:15:05;;;;;;;14.85;3.75;;;;;;;9.31;100.00;100649.66;5027151;28;20037;-84
2023/03/22 01:17:31;;;;;;;9.23;3.50;;;;;;;9.39;100.00;100643.06;5019418;28;20352;-84
2023/03/22 01:19:58;;;;;;;10.95;2.85;;;;;;;9.46;100.00;100649.78;5012654;28;20041;-84
2023/03/22 01:22:25;;;;;;;31.20;3.95;;;;;;;9.48;100.00;100637.22;5023532;28;20495;-84
2023/03/22 01:24:53;;;;;;;23.63;4.88;;;;;;;9.49;100.00;100642.47;5009829;28;20044;-82
2023/03/22 01:27:19;;;;;;;19.25;2.95;;;;;;;9.52;100.00;100630.78;5008066;28;20117;-83
2023/03/22 01:29:46;;;;;;;12.02;4.03;;;;;;;9.54;100.00;100626.22;5021313;28;20038;-84
2023/03/22 01:32:12;;;;;;;16.83;4.55;;;;;;;9.56;100.00;100621.69;5014561;28;20048;-84
2023/03/22 01:34:39;;;;;;;14.35;3.47;;;;;;;9.60;100.00;100625.91;5009946;28;20029;-84
2023/03/22 01:37:05;;;;;;;12.73;2.80;;;;;;;9.59;100.00;100618.00;5006483;28;20045;-86
2023/03/22 01:39:32;;;;;;;15.25;3.03;;;;;;;9.56;100.00;100608.38;5018513;28;20058;-84
2023/03/22 01:42:04;;;;;;;12.67;3.43;;;;;;;9.56;100.00;100610.16;5019830;28;20048;-88
2023/03/22 01:44:31;;;;;;;18.17;3.70;;;;;;;9.53;100.00;100602.34;5019730;28;20359;-86
2023/03/22 01:46:59;;;;;;;11.15;3.08;;;;;;;9.48;100.00;100598.09;5009852;28;20494;-81
2023/03/22 01:49:30;;;;;;;13.10;3.45;;;;;;;9.51;100.00;100586.44;5001946;28;20040;-84
2023/03/22 01:52:03;;;;;;;11.05;2.75;;;;;;;9.49;100.00;100585.66;5018051;28;20048;-85
2023/03/22 01:54:49;;;;;;;16.83;3.50;;;;;;;9.52;100.00;100588.16;5007405;28;20382;-82
2023/03/22 01:57:27;;;;;;;18.55;3.70;;;;;;;9.53;100.00;100581.88;5012052;28;20044;-84
2023/03/22 01:59:54;;;;;;;12.60;2.78;;;;;;;9.49;100.00;100589.19;5011381;28;20128;-84
2023/03/22 02:02:49;;;;;;;13.73;3.00;;;;;;;9.46;100.00;100575.16;5020174;28;20104;-86
2023/03/22 02:05:25;;;;;;;14.23;3.25;;;;;;;9.47;100.00;100572.44;5019874;28;20041;-85
2023/03/22 02:07:53;;;;;;;13.70;3.30;;;;;;;9.45;100.00;100566.31;5021840;28;20022;-85
2023/03/22 02:10:25;;;;;;;13.20;3.45;;;;;;;9.46;100.00;100560.03;5023340;28;20041;-86
2023/03/22 02:12:58;;;;;;;13.90;3.53;;;;;;;9.45;100.00;100561.00;5013213;28;20680;-88
2023/03/22 02:15:51;;;;;;;15.38;3.80;;;;;;;9.40;100.00;100557.72;5033432;28;20084;-84
2023/03/22 02:19:01;;;;;;;11.95;3.35;;;;;;;9.16;100.00;100505.81;5024662;28;20077;-86
2023/03/22 02:21:33;;;;;;;19.20;4.22;;;;;;;9.36;100.00;100536.69;5021253;28;20042;-85
2023/03/22 02:24:19;;;;;;;15.57;4.93;;;;;;;9.39;100.00;100539.16;5019884;28;20053;-83
2023/03/22 02:27:22;;;;;;;12.82;4.78;;;;;;;9.42;100.00;100534.50;5035627;28;20042;-87
2023/03/22 02:30:01;;;;;;;16.98;5.85;;;;;;;9.46;100.00;100527.22;5004367;28;20038;-87
2023/03/22 02:32:48;;;;;;;13.48;5.68;;;;;;;9.32;100.00;100494.22;5005087;28;20029;-86
2023/03/22 02:35:52;;;;;;;22.17;7.32;;;;;;;9.57;100.00;100522.13;5006940;28;20554;-85
2023/03/22 02:38:28;;;;;;;21.50;7.60;;;;;;;9.62;100.00;100514.75;5012525;28;20026;-86
2023/03/22 02:41:02;;;;;;;15.20;7.40;;;;;;;9.66;100.00;100521.63;5008320;28;20124;-82
2023/03/22 02:43:37;;;;;;;17.42;8.27;;;;;;;9.72;100.00;100517.75;5003331;28;20136;-84
2023/03/22 02:46:26;;;;;;;19.10;10.68;;;;;;;9.80;100.00;100517.31;5016359;28;20485;-83
2023/03/22 02:49:06;;;;;;;25.00;10.63;;;;;;;9.79;100.00;100499.59;5021035;28;20037;-82
2023/03/22 02:51:55;;;;;;;19.85;11.10;;;;;;;9.82;100.00;100502.94;5017425;28;20030;-82
2023/03/22 02:54:32;;;;;;;20.95;11.15;;;;;;;9.80;100.00;100503.97;5001997;28;20088;-84
2023/03/22 02:57:28;;;;;;;24.73;12.40;;;;;;;9.82;100.00;100494.06;5021336;28;20140;-79
2023/03/22 02:59:55;;;;;;;21.13;11.23;;;;;;;9.78;100.00;100497.88;5016105;28;20034;-80
2023/03/22 03:02:27;;;;;;;27.95;13.55;;;;;;;9.76;100.00;100495.28;5008537;28;20121;-82
2023/03/22 03:04:53;;;;;;;26.75;12.77;;;;;;;9.70;100.00;100496.50;5005874;28;20033;-82
2023/03/22 03:07:23;;;;;;;25.13;13.15;;;;;;;9.49;100.00;100466.63;5020635;28;20048;-82
2023/03/22 03:09:50;;;;;;;32.47;13.52;;;;;;;9.63;100.00;100494.28;5016385;28;20873;-81
2023/03/22 03:12:23;;;;;;;26.48;12.98;;;;;;;9.37;100.00;100453.97;5023889;28;20037;-81
2023/03/22 03:14:52;;;;;;;26.08;13.73;;;;;;;9.54;100.00;100500.13;5019166;28;20063;-81
2023/03/22 03:17:44;;;;;;;27.50;13.73;;;;;;;9.53;100.00;100498.44;5007049;28;20053;-83
2023/03/22 03:20:48;;;;;;;28.63;14.65;;;;;;;9.50;100.00;100496.78;5021424;28;20025;-82
2023/03/22 03:23:21;;;;;;;29.35;15.25;;;;;;;9.50;100.00;100499.44;5049978;28;20032;-83
2023/03/22 03:26:08;;;;;;;27.13;15.10;;;;;;;9.49;100.00;100492.41;5010887;28;20029;-83
2023/03/22 03:28:46;;;;;;;29.35;14.98;;;;;;;9.48;100.00;100496.84;5023203;28;20025;-84
2023/03/22 03:31:34;;;;;;;28.63;15.10;;;;;;;9.45;100.00;100486.41;5020619;28;20061;-85
2023/03/22 03:34:19;;;;;;;30.05;14.82;;;;;;;9.44;100.00;100495.31;5034081;28;20026;-80
2023/03/22 03:37:11;;;;;;;32.33;16.92;;;;;;;9.44;100.00;100483.81;5018896;28;20120;-83
2023/03/22 03:39:43;;;;;;;29.58;15.52;;;;;;;9.43;100.00;100493.63;5018598;28;20137;-81
2023/03/22 03:42:12;;;;;;;33.40;17.13;;;;;;;9.42;100.00;100485.69;5020663;28;20459;-80
2023/03/22 03:44:39;;;;;;;30.98;16.55;;;;;;;9.44;100.00;100483.81;5022066;28;20026;-81
2023/03/22 03:47:07;;;;;;;32.17;17.02;;;;;;;9.44;100.00;100482.00;5021772;28;20041;-82
2023/03/22 03:49:33;;;;;;;28.52;15.77;;;;;;;9.44;100.00;100483.81;5018787;28;20482;-80
2023/03/22 03:52:00;;;;;;;28.27;16.38;;;;;;;9.42;100.00;100491.88;5000555;28;20156;-84
2023/03/22 03:54:26;;;;;;;32.00;16.95;;;;;;;9.38;100.00;100489.50;4994091;28;20068;-80
2023/03/22 03:56:53;;;;;;;30.60;16.20;;;;;;;9.37;100.00;100482.44;5006275;28;20030;-82
2023/03/22 03:59:19;;;;;;;29.35;17.42;;;;;;;9.39;100.00;100481.38;5009111;28;20494;-86
2023/03/22 04:01:51;;;;;;;30.10;15.75;;;;;;;9.40;100.00;100490.25;5012227;28;20826;-83
2023/03/22 04:04:28;;;;;;;30.45;17.27;;;;;;;9.43;100.00;100482.97;5022810;28;20044;-83
2023/03/22 04:07:02;;;;;;;29.25;16.48;;;;;;;9.44;100.00;100482.00;5019226;28;20056;-83
2023/03/22 04:09:31;;;;;;;30.35;16.42;;;;;;;9.46;100.00;100485.44;5017522;28;20455;-84
2023/03/22 04:12:08;;;;;;;28.13;16.23;;;;;;;9.45;100.00;100480.19;4997508;28;20040;-84
2023/03/22 04:14:35;;;;;;;32.00;17.52;;;;;;;9.44;100.00;100476.66;5003563;28;20428;-81
2023/03/22 04:17:09;;;;;;;35.70;18.13;;;;;;;9.45;100.00;100470.41;5009597;28;20148;-82
2023/03/22 04:19:35;;;;;;;34.80;17.35;;;;;;;9.50;100.00;100483.44;5010072;28;20096;-83
2023/03/22 04:22:02;;;;;;;30.33;16.60;;;;;;;9.48;100.00;100464.88;5011843;28;20084;-82
2023/03/22 04:24:30;;;;;;;30.92;16.52;;;;;;;9.53;100.00;100466.44;5020085;28;20042;-83
2023/03/22 04:26:56;;;;;;;29.55;16.50;;;;;;;9.52;100.00;100449.59;5020882;28;20049;-82
2023/03/22 04:29:25;;;;;;;26.77;15.80;;;;;;;9.55;100.00;100460.06;5043351;28;20108;-83
2023/03/22 04:31:59;;;;;;;32.78;16.75;;;;;;;9.58;100.00;100462.56;5018593;28;20123;-84
2023/03/22 04:34:31;;;;;;;33.25;16.20;;;;;;;9.61;100.00;100458.88;5008291;28;21142;-83
2023/03/22 04:37:02;;;;;;;29.05;16.13;;;;;;;9.65;100.00;100452.41;5009511;28;20051;-85
2023/03/22 04:39:35;;;;;;;31.13;15.15;;;;;;;9.65;100.00;100458.63;5025855;28;20038;-84
2023/03/22 04:42:20;;;;;;;29.25;15.07;;;;;;;9.67;100.00;100453.16;5022946;28;20131;-84
2023/03/22 04:44:49;;;;;;;24.25;14.63;;;;;;;9.67;100.00;100459.38;5010752;28;20118;-81
2023/03/22 04:47:17;;;;;;;33.13;15.02;;;;;;;9.67;100.00;100451.38;5010141;28;20048;-83
2023/03/22 04:49:44;;;;;;;28.02;14.68;;;;;;;9.66;100.00;100441.66;5007178;28;20030;-80
2023/03/22 04:52:10;;;;;;;31.30;14.52;;;;;;;9.68;100.00;100455.75;5022014;28;20045;-82
2023/03/22 04:54:37;;;;;;;27.27;14.40;;;;;;;9.69;100.00;100437.94;5025478;28;20033;-83
2023/03/22 04:57:06;;;;;;;26.05;13.93;;;;;;;9.65;100.00;100439.97;5008959;28;20025;-83
2023/03/22 04:59:38;;;;;;;26.55;13.20;;;;;;;9.65;100.00;100439.97;5006490;28;20054;-82
2023/03/22 05:02:05;;;;;;;28.90;14.45;;;;;;;9.68;100.00;100439.75;5020651;28;20152;-83
2023/03/22 05:04:38;;;;;;;30.23;13.85;;;;;;;9.64;100.00;100434.72;5015286;28;20034;-83
2023/03/22 05:07:13;;;;;;;31.10;14.93;;;;;;;9.63;100.00;100430.31;5035455;28;20038;-82
2023/03/22 05:09:45;;;;;;;29.35;14.95;;;;;;;9.57;100.00;100430.69;5011094;28;20053;-86
2023/03/22 05:12:15;;;;;;;23.98;13.90;;;;;;;9.52;100.00;100430.94;5007617;28;20147;-81
2023/03/22 05:14:49;;;;;;;26.52;13.70;;;;;;;9.51;100.00;100434.56;5012938;28;20033;-82
2023/03/22 05:17:20;;;;;;;29.27;13.55;;;;;;;9.47;100.00;100435.69;5006778;28;20124;-86
2023/03/22 05:19:48;;;;;;;33.25;13.50;;;;;;;9.44;100.00;100446.50;5002579;28;20034;-82
2023/03/22 05:22:14;;;;;;;22.88;13.27;;;;;;;9.25;100.00;100399.59;5018945;28;20059;-84
2023/03/22 05:24:45;;;;;;;27.13;12.68;;;;;;;9.39;100.00;100429.91;5020799;28;20506;-85
2023/03/22 05:27:16;;;;;;;29.42;13.50;;;;;;;9.42;100.00;100438.59;4992518;28;20053;-85
2023/03/22 05:29:43;;;;;;;30.67;13.73;;;;;;;9.43;100.00;100427.00;5012414;28;20116;-82
2023/03/22 05:32:17;;;;;;;21.90;12.85;;;;;;;9.45;100.00;100427.78;5011812;28;20455;-82
2023/03/22 05:34:47;;;;;;;25.77;12.20;;;;;;;9.54;100.00;100423.69;5011780;28;20049;-81
2023/03/22 05:37:26;;;;;;;26.20;12.70;;;;;;;9.56;100.00;100420.94;4985741;28;20545;-81
2023/03/22 05:39:55;;;;;;;26.42;11.82;;;;;;;9.59;100.00;100415.47;4995291;28;20179;-82
2023/03/22 05:42:27;;;;;;;21.13;11.23;;;;;;;9.43;100.00;100387.03;5003764;28;20070;-82
2023/03/22 05:44:53;;;;;;;28.70;11.88;;;;;;;9.61;100.00;100405.56;5038016;28;20032;-80
2023/03/22 05:47:20;;;;;;;22.00;11.95;;;;;;;9.64;100.00;100405.41;5038382;28;20052;-82
2023/03/22 05:49:59;;;;;;;23.38;10.82;;;;;;;9.66;100.00;100399.00;5019979;28;20442;-80
2023/03/22 05:52:27;;;;;;;20.05;10.18;;;;;;;9.67;100.00;100410.53;5007250;28;20030;-82
2023/03/22 05:55:16;;;;;;;21.23;10.30;;;;;;;9.70;100.00;100397.88;5014145;28;20045;-84
2023/03/22 05:57:45;;;;;;;21.83;10.20;;;;;;;9.69;100.00;100393.50;5008532;28;20034;-80
2023/03/22 06:00:15;;;;;;;21.55;10.32;;;;;;;9.68;100.00;100383.78;5021434;28;20042;-83
2023/03/22 06:03:02;;;;;;;20.42;9.60;;;;;;;9.67;100.00;100378.53;4991736;28;20041;-81
2023/03/22 06:05:30;;;;;;;20.80;9.32;;;;;;;9.64;100.00;100394.72;5072628;28;20406;-83
2023/03/22 06:07:57;;;;;;;21.90;9.27;;;;;;;9.63;100.00;100399.19;5025954;28;20147;-81
2023/03/22 06:10:25;;;;;;;16.65;8.98;;;;;;;9.63;100.00;100399.19;5020291;28;20111;-81
2023/03/22 06:12:52;;;;;;;21.38;8.90;;;;;;;9.69;100.00;100401.50;5034498;28;20110;-85
2023/03/22 06:15:28;;;;;;;24.48;8.75;;;;;;;9.76;100.00;100391.31;5013593;28;20046;-80
2023/03/22 06:18:02;;;;;;;21.88;8.02;;;;;;;9.84;100.00;100402.41;5032304;28;20088;-80
2023/03/22 06:20:34;;;;;;;19.95;8.07;;;;;;;9.92;100.00;100401.94;4997215;28;20048;-82
2023/03/22 06:23:06;;;;;;;20.63;7.78;;;;;;;10.06;100.00;100395.78;5033989;28;20029;-82
2023/03/22 06:25:34;;;;;;;14.93;7.40;;;;;;;10.16;100.00;100393.41;5027416;28;20059;-84
2023/03/22 06:28:00;;;;;;;16.60;7.50;;;;;;;10.17;100.00;100403.13;5013413;28;20033;-82
2023/03/22 06:30:28;;;;;;;20.25;6.78;;;;;;;10.17;100.00;100411.97;5009877;28;20030;-82
2023/03/22 06:33:23;;;;;;;22.05;6.88;;;;;;;10.21;100.00;100396.66;5012445;28;20034;-82
2023/03/22 06:35:55;;;;;;;16.77;6.55;;;;;;;10.19;100.00;100391.41;5011587;28;20034;-81
2023/03/22 06:38:30;;;;;;;20.38;6.60;;;;;;;10.31;100.00;100402.31;5017370;28;20124;-83
2023/03/22 06:40:56;;;;;;;23.05;6.70;;;;;;;10.33;100.00;100403.94;5027066;28;20132;-81
2023/03/22 06:43:23;;;;;;;19.65;6.43;;;;;;;10.38;100.00;100391.19;5010096;28;20029;-83
2023/03/22 06:45:59;;;;;;;21.45;6.30;;;;;;;10.47;100.00;100389.75;4994505;28;20137;-81
2023/03/22 06:48:32;;;;;;;15.05;5.13;;;;;;;10.46;100.00;100388.91;4996343;28;20499;-82
2023/03/22 06:51:07;;;;;;;14.85;5.20;;;;;;;10.47;100.00;100398.63;5026858;28;20041;-83
2023/03/22 06:53:35;;;;;;;14.32;5.30;;;;;;;10.55;100.00;100413.28;5009789;28;20025;-81
2023/03/22 06:56:04;;;;;;;10.75;4.68;;;;;;;10.52;100.00;100408.16;5029369;28;20042;-81
2023/03/22 06:58:37;;;;;;;13.20;4.60;;;;;;;10.43;100.00;100399.75;5023527;28;20034;-79
2023/03/22 07:01:05;;;;;;;17.00;5.28;;;;;;;10.38;100.00;100396.53;5019453;28;20191;-81
2023/03/22 07:03:32;;;;;;;17.00;4.35;;;;;;;10.31;100.00;100397.84;5008921;28;20042;-83
2023/03/22 07:06:12;;;;;;;26.05;5.93;;;;;;;10.32;100.00;100401.38;5010803;28;20306;-80
2023/03/22 07:08:44;;;;;;;12.13;4.70;;;;;;;10.32;100.00;100396.88;5017846;28;20341;-80
2023/03/22 07:11:14;;;;;;;19.13;5.22;;;;;;;10.33;100.00;100401.28;4985295;28;21093;-82
2023/03/22 07:13:44;;;;;;;15.45;4.60;;;;;;;10.31;100.00;100405.84;5006005;28;20033;-80
2023/03/22 07:16:15;;;;;;;16.25;3.95;;;;;;;10.26;100.00;100411.44;5007424;28;20092;-80
2023/03/22 07:18:49;;;;;;;18.70;4.55;;;;;;;10.30;100.00;100404.09;5020059;28;20034;-81
2023/03/22 07:21:15;;;;;;;23.40;4.63;;;;;;;10.36;100.00;100397.56;5005132;28;20117;-80
2023/03/22 07:23:46;;;;;;;;;;;;;;;10.47;100.00;100392.41;5017832;28;20073;-82
2023/03/22 07:26:16;;;;;;;13.18;4.60;;;;;;;10.57;100.00;100400.72;5042803;28;19983;-82
2023/03/22 07:28:46;;;;;;;16.52;4.35;;;;;;;10.73;100.00;100398.78;5012838;28;20501;-81
2023/03/22 07:31:15;;;;;;;14.45;4.38;;;;;;;10.91;100.00;100401.25;5029758;28;20041;-81
2023/03/22 07:33:47;;;;;;;13.18;3.47;;;;;;;10.98;100.00;100399.91;5035063;28;20400;-81
2023/03/22 07:36:14;;;;;;;17.60;3.83;;;;;;;11.09;100.00;100392.06;5025334;28;20038;-82
2023/03/22 07:38:40;;;;;;;16.20;4.63;;;;;;;11.30;100.00;100380.94;5013028;28;20044;-81
2023/03/22 07:41:12;;;;;;;11.85;3.30;;;;;;;11.32;100.00;100395.91;5004065;28;20117;-81
2023/03/22 07:43:53;;;;;;;14.88;4.18;;;;;;;11.28;100.00;100373.00;5009980;28;20062;-79
2023/03/22 07:46:21;;;;;;;20.40;4.78;;;;;;;11.35;100.00;100376.13;5002159;28;20076;-80
2023/03/22 07:48:57;;;;;;;16.98;4.07;;;;;;;11.42;100.00;100385.44;5013550;28;20052;-79
2023/03/22 07:51:43;;;;;;;18.00;3.65;;;;;;;11.49;100.00;100383.25;5010029;28;20056;-81
2023/03/22 07:54:09;;;;;;;21.85;3.90;;;;;;;11.45;100.00;100382.59;5014138;28;20026;-81
2023/03/22 07:56:36;;;;;;;15.02;3.63;;;;;;;11.39;100.00;100388.34;5014617;28;20042;-80
2023/03/22 07:59:03;;;;;;;11.10;3.00;;;;;;;11.36;100.00;100377.84;5035938;28;20044;-82
2023/03/22 08:01:29;;;;;;;20.75;4.13;;;;;;;11.36;100.00;100400.06;5000339;28;20155;-80
2023/03/22 08:04:06;;;;;;;15.23;3.47;;;;;;;11.40;100.00;100400.72;5013030;28;20034;-82
2023/03/22 08:07:02;;;;;;;17.02;3.90;;;;;;;11.40;100.00;100380.19;5028340;28;20052;-80
2023/03/22 08:09:29;;;;;;;13.55;3.83;;;;;;;11.43;100.00;100406.75;5028794;28;20453;-80
2023/03/22 08:11:56;;;;;;;20.75;3.60;;;;;;;11.43;100.00;100401.38;5010182;28;20077;-82
2023/03/22 08:14:24;;;;;;;20.65;3.58;;;;;;;11.43;100.00;100347.09;5027287;28;20120;-81
2023/03/22 08:16:50;;;;;;;14.82;3.33;;;;;;;11.36;100.00;100404.56;5015743;28;20041;-79
2023/03/22 08:19:17;;;;;;;15.45;4.05;;;;;;;11.29;100.00;100398.75;5035838;28;20036;-79
2023/03/22 08:21:46;;;;;;;25.92;3.75;;;;;;;11.16;100.00;100392.50;5022483;28;20637;-81
2023/03/22 08:24:26;;;;;;;15.05;4.22;;;;;;;11.05;100.00;100383.41;5044228;28;20132;-79
2023/03/22 08:27:07;;;;;;;12.68;3.60;;;;;;;11.00;100.00;100398.84;5026700;28;20084;-80
2023/03/22 08:29:47;;;;;;;14.68;3.60;;;;;;;11.00;100.00;100396.19;5015240;28;20038;-80
2023/03/22 08:32:15;;;;;;;13.85;3.40;;;;;;;11.06;100.00;100392.25;5023106;28;20038;-80
2023/03/22 08:34:42;;;;;;;17.55;5.00;;;;;;;11.13;100.00;100401.59;5026058;28;20037;-80
2023/03/22 08:37:10;;;;;;;12.70;4.00;;;;;;;11.13;100.00;100382.88;5026397;28;20049;-81
2023/03/22 08:39:37;;;;;;;16.75;3.92;;;;;;;11.15;100.00;100386.31;5015736;28;20107;-83
2023/03/22 08:42:24;;;;;;;17.38;4.43;;;;;;;11.13;100.00;100395.41;5012662;28;20069;-80
2023/03/22 08:44:51;;;;;;;18.67;4.82;;;;;;;11.14;100.00;100397.94;5032561;28;20486;-80
2023/03/22 08:47:18;;;;;;;18.13;4.25;;;;;;;11.11;100.00;100389.28;5015384;28;20504;-79
2023/03/22 08:49:45;;;;;;;16.15;4.38;;;;;;;11.04;100.00;100383.50;5025133;28;20034;-78
2023/03/22 08:52:22;;;;;;;14.35;3.70;;;;;;;10.99;100.00;100397.13;5027225;28;20399;-81
2023/03/22 08:54:57;;;;;;;16.50;4.40;;;;;;;10.91;100.00;100406.59;5036283;28;20037;-82
2023/03/22 08:57:50;;;;;;;17.05;4.40;;;;;;;10.66;100.00;100390.31;5013980;28;20034;-80
2023/03/22 09:00:27;;;;;;;14.32;4.00;;;;;;;10.44;100.00;100390.81;5014599;28;20045;-81
2023/03/22 09:03:13;;;;;;;13.63;4.45;;;;;;;10.32;100.00;100402.22;5003292;28;20041;-80
2023/03/22 09:05:40;;;;;;;13.98;4.53;;;;;;;10.23;100.00;100389.41;5011071;28;20041;-81
2023/03/22 09:08:07;;;;;;;15.80;4.55;;;;;;;10.18;100.00;100391.53;5008202;28;20045;-80
2023/03/22 09:10:46;;;;;;;16.77;4.55;;;;;;;10.18;100.00;100394.19;5016727;28;20446;-79
2023/03/22 09:13:15;;;;;;;16.27;4.68;;;;;;;10.15;100.00;100405.03;5015246;28;20037;-79
2023/03/22 09:15:51;;;;;;;15.65;5.35;;;;;;;10.16;100.00;100404.06;5011224;28;20034;-80
2023/03/22 09:18:24;;;;;;;20.02;5.50;;;;;;;10.11;100.00;100398.19;5012582;28;20036;-79
2023/03/22 09:20:51;;;;;;;20.25;4.50;;;;;;;10.02;100.00;100379.09;5011691;28;20032;-79
2023/03/22 09:23:21;;;;;;;26.23;5.88;;;;;;;9.96;100.00;100395.47;5003103;28;20033;-80
2023/03/22 09:25:50;;;;;;;25.70;5.70;;;;;;;9.89;100.00;100399.47;5012481;28;20041;-79
2023/03/22 09:28:20;;;;;;;16.55;5.68;;;;;;;9.89;100.00;100396.78;5024154;28;20049;-79
2023/03/22 09:30:47;;;;;;;19.77;5.45;;;;;;;9.84;100.00;100393.53;5011761;28;20049;-80
2023/03/22 09:33:16;;;;;;;15.07;5.40;;;;;;;9.81;100.00;100391.06;5024334;28;20807;-80
2023/03/22 09:35:47;;;;;;;19.52;5.88;;;;;;;9.80;100.00;100384.00;5000261;28;20034;-81
2023/03/22 09:38:15;;;;;;;18.77;5.60;;;;;;;9.78;100.00;100385.91;5029101;28;20033;-80
2023/03/22 09:40:59;;;;;;;19.80;5.30;;;;;;;9.68;100.00;100388.28;4995984;28;20050;-80
2023/03/22 09:43:33;;;;;;;19.73;6.22;;;;;;;9.70;100.00;100391.69;5021551;28;20030;-79
2023/03/22 09:45:59;;;;;;;17.90;5.23;;;;;;;9.69;100.00;100385.53;5019196;28;20494;-81
2023/03/22 09:48:39;;;;;;;25.77;6.00;;;;;;;9.78;100.00;100370.75;5011334;28;20300;-78
2023/03/22 09:51:43;;;;;;;19.08;6.28;;;;;;;9.78;100.00;100378.75;5011821;28;20517;-80
2023/03/22 09:54:18;;;;;;;22.52;6.75;;;;;;;9.75;100.00;100386.09;5025823;28;20069;-82
2023/03/22 09:57:07;;;;;;;34.85;7.35;;;;;;;9.72;100.00;100376.47;5032521;28;20060;-81
2023/03/22 09:59:57;;;;;;;22.58;6.57;;;;;;;9.75;100.00;100373.63;5011007;28;20061;-83
2023/03/22 10:02:49;;;;;;;22.77;7.25;;;;;;;9.75;100.00;100388.75;5013441;28;20513;-82
2023/03/22 10:05:26;;;;;;;19.33;5.45;;;;;;;9.74;100.00;100393.22;5012370;28;20033;-81
2023/03/22 10:08:26;;;;;;;20.73;5.80;;;;;;;9.77;100.00;100385.06;5001371;28;20034;-82
2023/03/22 10:10:52;;;;;;;18.23;5.72;;;;;;;9.77;100.00;100381.53;5012969;28;20033;-78
2023/03/22 10:13:33;;;;;;;18.40;6.38;;;;;;;9.79;100.00;100379.63;5017148;28;20065;-82
2023/03/22 10:16:02;;;;;;;25.20;6.47;;;;;;;9.77;100.00;100368.22;5021023;28;20021;-81
2023/03/22 10:18:48;;;;;;;18.15;5.75;;;;;;;9.84;100.00;100383.75;5032910;28;20108;-83
2023/03/22 10:21:16;;;;;;;13.10;5.13;;;;;;;9.81;100.00;100396.41;5030616;28;20043;-80
2023/03/22 10:23:46;;;;;;;18.67;6.13;;;;;;;9.80;100.00;100378.69;5030768;28;20045;-79
2023/03/22 10:26:48;;;;;;;16.13;5.25;;;;;;;9.78;100.00;100385.91;5031392;28;20025;-79
2023/03/22 10:29:29;;;;;;;19.50;6.40;;;;;;;9.76;100.00;100394.00;4968932;28;20038;-80
2023/03/22 10:31:56;;;;;;;19.63;5.18;;;;;;;9.72;100.00;100391.63;5010428;28;20053;-80
2023/03/22 10:34:28;;;;;;;14.20;5.07;;;;;;;9.70;100.00;100389.03;5014125;28;20095;-81
2023/03/22 10:36:55;;;;;;;21.83;4.85;;;;;;;9.69;100.00;100382.84;5021465;28;20113;-81
2023/03/22 10:39:27;;;;;;;18.80;6.15;;;;;;;9.73;100.00;100398.66;5022107;28;20032;-80
2023/03/22 10:42:01;;;;;;;27.13;5.93;;;;;;;9.75;100.00;100384.28;5011732;28;20042;-81
2023/03/22 10:44:30;;;;;;;21.50;5.65;;;;;;;9.78;100.00;100392.09;5026261;28;20041;-80
2023/03/22 10:46:59;;;;;;;13.48;5.43;;;;;;;9.82;100.00;100379.44;5021237;28;20038;-81
2023/03/22 10:49:31;;;;;;;15.05;5.18;;;;;;;9.87;100.00;100374.69;5011204;28;20044;-82
2023/03/22 10:52:24;;;;;;;20.05;7.18;;;;;;;10.02;100.00;100372.91;5026756;28;20068;-81
2023/03/22 10:54:51;;;;;;;16.38;5.50;;;;;;;10.12;100.00;100358.09;5025447;28;20403;-78
2023/03/22 10:57:17;;;;;;;24.95;6.95;;;;;;;10.21;100.00;100361.97;5015131;28;20041;-81
2023/03/22 10:59:46;;;;;;;14.15;4.88;;;;;;;10.20;100.00;100349.59;4993345;28;20044;-79
2023/03/22 11:02:23;;;;;;;19.65;6.38;;;;;;;10.26;100.00;100352.72;5011125;28;20038;-82
2023/03/22 11:04:52;;;;;;;15.93;6.00;;;;;;;10.12;100.00;100330.53;5017815;28;20067;-83
2023/03/22 11:07:44;;;;;;;17.38;5.68;;;;;;;10.33;100.00;100366.59;5018279;28;20042;-80
2023/03/22 11:10:11;;;;;;;21.15;6.10;;;;;;;10.42;100.00;100370.50;5014153;28;20068;-81
2023/03/22 11:12:43;;;;;;;14.07;5.50;;;;;;;10.47;100.00;100358.59;5029603;28;20053;-84
2023/03/22 11:15:30;;;;;;;17.38;5.95;;;;;;;10.44;100.00;100369.44;5025281;28;20120;-80
2023/03/22 11:18:12;;;;;;;18.13;5.95;;;;;;;10.50;100.00;100348.69;5028621;28;20049;-79
2023/03/22 11:20:51;;;;;;;14.38;5.65;;;;;;;10.50;100.00;100365.53;5027866;28;20038;-80
2023/03/22 11:23:19;;;;;;;18.73;6.28;;;;;;;10.59;100.00;100361.44;4998123;28;20037;-79
2023/03/22 11:25:48;;;;;;;11.13;5.50;;;;;;;10.72;100.00;100362.38;5034368;28;20061;-81
2023/03/22 11:28:50;;;;;;;18.88;7.05;;;;;;;10.72;100.00;100361.53;5016148;28;20572;-79
2023/03/22 11:31:18;;;;;;;18.83;5.80;;;;;;;10.71;100.00;100379.34;5015195;28;20049;-79
2023/03/22 11:33:56;;;;;;;12.02;4.85;;;;;;;10.76;100.00;100384.41;5025935;28;20508;-81
2023/03/22 11:36:23;;;;;;;21.63;6.10;;;;;;;10.74;100.00;100360.47;5010438;28;20038;-79
2023/03/22 11:38:56;;;;;;;12.40;5.32;;;;;;;10.69;100.00;100391.06;5011964;28;20044;-81